Chaves, Brazil
Current Conditions -  °F | °C
As of 8:00 PM on Friday 24 Oct 2014 (Local Time) from SBMQ Reporting Station
Clear Clear  
Wind Chill: 82°   Ceiling: Unl
Heat Index: 88°   Visibility: 6mi
Dew Point: 73°   Wind: 12mph
Humidity: 74%   Direction: 50°NE
Pressure: 29.8"   Gusts: NA
Location:  0.2°S, 49.92°W
Report Text: SBMQ 242300Z 05010KT CAVOK 28/23 Q1009
Loading
Personal Weather Stations






























Interactive Weather Map
Tropical Storm Tracking
New forecast layout! Learn more

10-Day Weather Forecast

Advertisements
Track Severe Weather on mobile